createdAt,value
2018-07-07T00:00:32.138Z,1013.98
2018-07-07T00:01:32.127Z,1014.02
2018-07-07T00:02:32.117Z,1014.03
2018-07-07T00:03:32.102Z,1014
2018-07-07T00:04:32.091Z,1014.03
2018-07-07T00:05:32.078Z,1014.03
2018-07-07T00:06:32.068Z,1014.03
2018-07-07T00:07:32.058Z,1014.03
2018-07-07T00:08:32.044Z,1014.05
2018-07-07T00:09:32.036Z,1014.02
2018-07-07T00:10:32.024Z,1014.05
2018-07-07T00:11:32.008Z,1014.04
2018-07-07T00:12:31.997Z,1014.07
2018-07-07T00:13:31.983Z,1014.08
2018-07-07T00:14:31.972Z,1014.07
2018-07-07T00:15:31.964Z,1014.09
2018-07-07T00:16:31.949Z,1014.09
2018-07-07T00:17:31.937Z,1014.08
2018-07-07T00:18:31.929Z,1014.09
2018-07-07T00:19:31.913Z,1014.11
2018-07-07T00:20:31.904Z,1014.07
2018-07-07T00:21:31.889Z,1014.06
2018-07-07T00:22:31.879Z,1014.08
2018-07-07T00:23:31.866Z,1014.08
2018-07-07T00:24:31.855Z,1014.04
2018-07-07T00:25:31.842Z,1014.06
2018-07-07T00:26:31.837Z,1014.13
2018-07-07T00:27:31.822Z,1014.14
2018-07-07T00:28:31.807Z,1014.13
2018-07-07T00:29:31.796Z,1014.1
2018-07-07T00:30:31.784Z,1014.13
2018-07-07T00:31:31.777Z,1014.15
2018-07-07T00:32:31.760Z,1014.14
2018-07-07T00:33:31.751Z,1014.13
2018-07-07T00:34:31.745Z,1014.1
2018-07-07T00:35:31.726Z,1014.18
2018-07-07T00:36:31.713Z,1014.17
2018-07-07T00:37:31.704Z,1014.17
2018-07-07T00:38:31.699Z,1014.17
2018-07-07T00:39:31.679Z,1014.17
2018-07-07T00:40:31.668Z,1014.22
2018-07-07T00:41:31.656Z,1014.21
2018-07-07T00:42:31.656Z,1014.22
2018-07-07T00:43:31.634Z,1014.21
2018-07-07T00:44:31.621Z,1014.18
2018-07-07T00:45:31.611Z,1014.2
2018-07-07T00:46:31.600Z,1014.24
2018-07-07T00:47:31.590Z,1014.23
2018-07-07T00:48:31.577Z,1014.22
2018-07-07T00:49:31.566Z,1014.25
2018-07-07T00:50:31.554Z,1014.23
2018-07-07T00:51:31.545Z,1014.25
2018-07-07T00:52:31.530Z,1014.2
2018-07-07T00:53:31.521Z,1014.25
2018-07-07T00:54:31.522Z,1014.21
2018-07-07T00:55:31.495Z,1014.25
2018-07-07T00:56:31.485Z,1014.25
2018-07-07T00:57:31.473Z,1014.25
2018-07-07T00:58:31.462Z,1014.26
2018-07-07T00:59:31.453Z,1014.26
2018-07-07T01:00:31.441Z,1014.3
2018-07-07T01:01:31.431Z,1014.3
2018-07-07T01:02:31.415Z,1014.27
2018-07-07T01:03:31.406Z,1014.32
2018-07-07T01:04:31.395Z,1014.32
2018-07-07T01:05:31.382Z,1014.28
2018-07-07T01:06:31.375Z,1014.31
2018-07-07T01:07:31.360Z,1014.33
2018-07-07T01:08:31.347Z,1014.37
2018-07-07T01:09:31.419Z,1014.33
2018-07-07T01:10:31.326Z,1014.34
2018-07-07T01:11:31.314Z,1014.36
2018-07-07T01:12:31.303Z,1014.35
2018-07-07T01:13:31.291Z,1014.32
2018-07-07T01:14:31.280Z,1014.34
2018-07-07T01:15:31.268Z,1014.34
2018-07-07T01:16:31.256Z,1014.3
2018-07-07T01:17:31.244Z,1014.29
2018-07-07T01:18:31.233Z,1014.31
2018-07-07T01:19:31.224Z,1014.27
2018-07-07T01:20:31.209Z,1014.27
2018-07-07T01:21:31.204Z,1014.28
2018-07-07T01:22:31.188Z,1014.28
2018-07-07T01:23:31.174Z,1014.28
2018-07-07T01:24:31.164Z,1014.31
2018-07-07T01:25:31.165Z,1014.27
2018-07-07T01:26:31.142Z,1014.32
2018-07-07T01:27:31.133Z,1014.33
2018-07-07T01:28:31.119Z,1014.32
2018-07-07T01:29:31.106Z,1014.34
2018-07-07T01:30:31.130Z,1014.35
2018-07-07T01:31:31.087Z,1014.32
2018-07-07T01:32:31.072Z,1014.32
2018-07-07T01:33:31.063Z,1014.31
2018-07-07T01:34:31.059Z,1014.3
2018-07-07T01:35:31.039Z,1014.31
2018-07-07T01:36:31.031Z,1014.28
2018-07-07T01:37:31.018Z,1014.25
2018-07-07T01:38:31.006Z,1014.28
2018-07-07T01:39:30.994Z,1014.25
2018-07-07T01:40:30.980Z,1014.25
2018-07-07T01:41:30.970Z,1014.25
2018-07-07T01:42:30.961Z,1014.25
2018-07-07T01:43:30.947Z,1014.27
2018-07-07T01:44:30.942Z,1014.26
2018-07-07T01:45:31.124Z,1014.3
2018-07-07T01:46:30.915Z,1014.27
2018-07-07T01:47:30.900Z,1014.28
2018-07-07T01:48:30.889Z,1014.25
2018-07-07T01:49:30.876Z,1014.25
2018-07-07T01:50:30.866Z,1014.31
2018-07-07T01:51:30.854Z,1014.32
2018-07-07T01:52:30.843Z,1014.26
2018-07-07T01:53:30.831Z,1014.3
2018-07-07T01:54:30.820Z,1014.29
2018-07-07T01:55:30.807Z,1014.27
2018-07-07T01:56:30.796Z,1014.27
2018-07-07T01:57:30.785Z,1014.29
2018-07-07T01:58:30.771Z,1014.29
2018-07-07T01:59:30.764Z,1014.3
2018-07-07T02:00:30.819Z,1014.27
2018-07-07T02:01:30.739Z,1014.31
2018-07-07T02:02:30.734Z,1014.31
2018-07-07T02:03:30.716Z,1014.3
2018-07-07T02:04:30.703Z,1014.33
2018-07-07T02:05:30.692Z,1014.3
2018-07-07T02:06:30.679Z,1014.29
2018-07-07T02:07:30.666Z,1014.3
2018-07-07T02:08:30.656Z,1014.28
2018-07-07T02:09:30.646Z,1014.28
2018-07-07T02:10:30.721Z,1014.3
2018-07-07T02:11:30.622Z,1014.29
2018-07-07T02:12:30.609Z,1014.32
2018-07-07T02:13:30.597Z,1014.29
2018-07-07T02:14:30.584Z,1014.32
2018-07-07T02:15:30.575Z,1014.35
2018-07-07T02:16:30.563Z,1014.33
2018-07-07T02:17:30.551Z,1014.31
2018-07-07T02:18:30.538Z,1014.32
2018-07-07T02:19:30.529Z,1014.31
2018-07-07T02:20:30.518Z,1014.33
2018-07-07T02:21:30.505Z,1014.27
2018-07-07T02:22:30.493Z,1014.27
2018-07-07T02:23:30.481Z,1014.3
2018-07-07T02:24:30.472Z,1014.3
2018-07-07T02:25:30.456Z,1014.31
2018-07-07T02:26:30.447Z,1014.34
2018-07-07T02:27:30.435Z,1014.32
2018-07-07T02:28:30.422Z,1014.29
2018-07-07T02:29:30.412Z,1014.25
2018-07-07T02:30:30.404Z,1014.26
2018-07-07T02:31:30.388Z,1014.28
2018-07-07T02:32:30.376Z,1014.22
2018-07-07T02:33:30.366Z,1014.22
2018-07-07T02:34:30.353Z,1014.22
2018-07-07T02:35:30.342Z,1014.25
2018-07-07T02:36:30.331Z,1014.18
2018-07-07T02:37:30.325Z,1014.19
2018-07-07T02:38:30.313Z,1014.15
2018-07-07T02:39:30.299Z,1014.17
2018-07-07T02:40:30.283Z,1014.18
2018-07-07T02:41:30.272Z,1014.19
2018-07-07T02:42:30.262Z,1014.15
2018-07-07T02:43:30.251Z,1014.18
2018-07-07T02:44:30.238Z,1014.15
2018-07-07T02:45:30.230Z,1014.16
2018-07-07T02:46:30.218Z,1014.18
2018-07-07T02:47:30.203Z,1014.2
2018-07-07T02:48:30.192Z,1014.17
2018-07-07T02:49:30.179Z,1014.18
2018-07-07T02:50:30.167Z,1014.18
2018-07-07T02:51:30.157Z,1014.21
2018-07-07T02:52:30.143Z,1014.21
2018-07-07T02:53:30.133Z,1014.25
2018-07-07T02:54:30.125Z,1014.25
2018-07-07T02:55:30.110Z,1014.31
2018-07-07T02:56:30.098Z,1014.31
2018-07-07T02:57:30.088Z,1014.35
2018-07-07T02:58:30.073Z,1014.36
2018-07-07T02:59:30.064Z,1014.35
2018-07-07T03:00:30.053Z,1014.33
2018-07-07T03:01:30.041Z,1014.35
2018-07-07T03:02:30.025Z,1014.35
2018-07-07T03:03:30.016Z,1014.34
2018-07-07T03:04:30.006Z,1014.33
2018-07-07T03:05:29.997Z,1014.35
2018-07-07T03:06:29.977Z,1014.36
2018-07-07T03:07:29.966Z,1014.32
2018-07-07T03:08:29.959Z,1014.32
2018-07-07T03:09:29.947Z,1014.32
2018-07-07T03:10:29.930Z,1014.29
2018-07-07T03:11:29.919Z,1014.35
2018-07-07T03:12:29.907Z,1014.32
2018-07-07T03:13:29.897Z,1014.35
2018-07-07T03:14:29.884Z,1014.36
2018-07-07T03:15:29.873Z,1014.36
2018-07-07T03:16:29.858Z,1014.36
2018-07-07T03:17:29.846Z,1014.34
2018-07-07T03:18:29.833Z,1014.37
2018-07-07T03:19:29.823Z,1014.37
2018-07-07T03:20:29.811Z,1014.32
2018-07-07T03:21:29.799Z,1014.36
2018-07-07T03:22:29.789Z,1014.36
2018-07-07T03:23:29.776Z,1014.35
2018-07-07T03:24:29.764Z,1014.42
2018-07-07T03:25:29.752Z,1014.44
2018-07-07T03:26:29.742Z,1014.41
2018-07-07T03:27:29.728Z,1014.44
2018-07-07T03:28:29.715Z,1014.44
2018-07-07T03:29:29.703Z,1014.49
2018-07-07T03:30:29.692Z,1014.51
2018-07-07T03:31:29.679Z,1014.48
2018-07-07T03:32:29.666Z,1014.47
2018-07-07T03:33:29.654Z,1014.49
2018-07-07T03:34:29.643Z,1014.53
2018-07-07T03:35:29.630Z,1014.52
2018-07-07T03:36:29.621Z,1014.51
2018-07-07T03:37:29.606Z,1014.52
2018-07-07T03:38:29.594Z,1014.54
2018-07-07T03:39:29.586Z,1014.55
2018-07-07T03:40:29.571Z,1014.56
2018-07-07T03:41:29.560Z,1014.58
2018-07-07T03:42:29.548Z,1014.55
2018-07-07T03:43:29.534Z,1014.58
2018-07-07T03:44:29.521Z,1014.6
2018-07-07T03:45:29.712Z,1014.59
2018-07-07T03:46:29.499Z,1014.57
2018-07-07T03:47:29.484Z,1014.61
2018-07-07T03:48:29.472Z,1014.61
2018-07-07T03:49:29.464Z,1014.62
2018-07-07T03:50:29.448Z,1014.62
2018-07-07T03:51:29.436Z,1014.63
2018-07-07T03:52:29.423Z,1014.64
2018-07-07T03:53:29.411Z,1014.65
2018-07-07T03:54:29.404Z,1014.66
2018-07-07T03:55:29.395Z,1014.71
2018-07-07T03:56:29.375Z,1014.69
2018-07-07T03:57:29.363Z,1014.72
2018-07-07T03:58:29.350Z,1014.72
2018-07-07T03:59:29.339Z,1014.74
2018-07-07T04:00:29.324Z,1014.73
2018-07-07T04:01:29.317Z,1014.68
2018-07-07T04:02:29.301Z,1014.72
2018-07-07T04:03:29.290Z,1014.72
2018-07-07T04:04:29.276Z,1014.71
2018-07-07T04:05:29.265Z,1014.72
2018-07-07T04:06:29.253Z,1014.69
2018-07-07T04:07:29.241Z,1014.72
2018-07-07T04:08:29.230Z,1014.72
2018-07-07T04:09:29.218Z,1014.76
2018-07-07T04:10:29.205Z,1014.75
2018-07-07T04:11:29.192Z,1014.76
2018-07-07T04:12:29.179Z,1014.81
2018-07-07T04:13:29.165Z,1014.82
2018-07-07T04:14:29.156Z,1014.82
2018-07-07T04:15:29.144Z,1014.84
2018-07-07T04:16:29.131Z,1014.85
2018-07-07T04:17:29.117Z,1014.86
2018-07-07T04:18:29.106Z,1014.88
2018-07-07T04:19:29.094Z,1014.89
2018-07-07T04:20:29.080Z,1014.9
2018-07-07T04:21:29.072Z,1014.93
2018-07-07T04:22:29.056Z,1014.97
2018-07-07T04:23:29.043Z,1014.94
2018-07-07T04:24:29.032Z,1014.95
2018-07-07T04:25:29.018Z,1014.98
2018-07-07T04:26:29.007Z,1014.96
2018-07-07T04:27:28.993Z,1014.98
2018-07-07T04:28:28.981Z,1014.95
2018-07-07T04:29:28.968Z,1014.96
2018-07-07T04:30:28.965Z,1014.93
2018-07-07T04:31:28.946Z,1014.93
2018-07-07T04:32:28.932Z,1014.99
2018-07-07T04:33:28.919Z,1014.97
2018-07-07T04:34:28.908Z,1014.98
2018-07-07T04:35:28.895Z,1014.97
2018-07-07T04:36:28.882Z,1014.97
2018-07-07T04:37:28.869Z,1014.95
2018-07-07T04:38:28.861Z,1014.95
2018-07-07T04:39:28.846Z,1014.98
2018-07-07T04:40:28.832Z,1014.95
2018-07-07T04:41:28.819Z,1015.01
2018-07-07T04:42:28.810Z,1014.97
2018-07-07T04:43:28.803Z,1015.01
2018-07-07T04:44:28.781Z,1014.97
2018-07-07T04:45:28.769Z,1015.04
2018-07-07T04:46:28.759Z,1014.97
2018-07-07T04:47:28.747Z,1015.02
2018-07-07T04:48:28.733Z,1015.03
2018-07-07T04:49:28.722Z,1015.04
2018-07-07T04:50:28.707Z,1015.07
2018-07-07T04:51:28.695Z,1015.05
2018-07-07T04:52:28.771Z,1015.09
2018-07-07T04:53:28.671Z,1015.09
2018-07-07T04:54:28.661Z,1015.11
2018-07-07T04:55:28.646Z,1015.12
2018-07-07T04:56:28.633Z,1015.12
2018-07-07T04:57:28.623Z,1015.11
2018-07-07T04:58:28.610Z,1015.15
2018-07-07T04:59:28.596Z,1015.11
2018-07-07T05:00:28.588Z,1015.15
2018-07-07T05:01:28.576Z,1015.16
2018-07-07T05:02:28.563Z,1015.13
2018-07-07T05:03:28.548Z,1015.13
2018-07-07T05:04:28.595Z,1015.17
2018-07-07T05:05:28.525Z,1015.14
2018-07-07T05:06:28.512Z,1015.13
2018-07-07T05:07:28.500Z,1015.15
2018-07-07T05:08:28.489Z,1015.14
2018-07-07T05:09:28.484Z,1015.14
2018-07-07T05:10:28.462Z,1015.12
2018-07-07T05:11:28.451Z,1015.12
2018-07-07T05:12:28.438Z,1015.13
2018-07-07T05:13:28.424Z,1015.12
2018-07-07T05:14:28.413Z,1015.14
2018-07-07T05:15:28.422Z,1015.14
2018-07-07T05:16:28.390Z,1015.13
2018-07-07T05:17:28.375Z,1015.13
2018-07-07T05:18:28.363Z,1015.11
2018-07-07T05:19:28.351Z,1015.12
2018-07-07T05:20:28.341Z,1015.14
2018-07-07T05:21:28.331Z,1015.14
2018-07-07T05:22:28.316Z,1015.18
2018-07-07T05:23:28.303Z,1015.16
2018-07-07T05:24:28.291Z,1015.18
2018-07-07T05:25:28.279Z,1015.17
2018-07-07T05:26:28.265Z,1015.21
2018-07-07T05:27:28.252Z,1015.2
2018-07-07T05:28:28.242Z,1015.22
2018-07-07T05:29:28.232Z,1015.23
2018-07-07T05:30:28.222Z,1015.24
2018-07-07T05:31:28.205Z,1015.23
2018-07-07T05:32:28.193Z,1015.25
2018-07-07T05:33:28.180Z,1015.28
2018-07-07T05:34:28.169Z,1015.33
2018-07-07T05:35:28.154Z,1015.28
2018-07-07T05:36:28.141Z,1015.32
2018-07-07T05:37:28.130Z,1015.32
2018-07-07T05:38:28.118Z,1015.31
2018-07-07T05:39:28.106Z,1015.33
2018-07-07T05:40:28.094Z,1015.34
2018-07-07T05:41:28.081Z,1015.38
2018-07-07T05:42:28.071Z,1015.4
2018-07-07T05:43:28.057Z,1015.42
2018-07-07T05:44:28.046Z,1015.41
2018-07-07T05:45:28.237Z,1015.42
2018-07-07T05:46:28.022Z,1015.41
2018-07-07T05:47:28.010Z,1015.4
2018-07-07T05:48:27.998Z,1015.42
2018-07-07T05:49:27.986Z,1015.4
2018-07-07T05:50:27.974Z,1015.36
2018-07-07T05:51:27.960Z,1015.39
2018-07-07T05:52:27.954Z,1015.36
2018-07-07T05:53:27.937Z,1015.4
2018-07-07T05:54:27.926Z,1015.38
2018-07-07T05:55:27.914Z,1015.38
2018-07-07T05:56:27.903Z,1015.4
2018-07-07T05:57:27.903Z,1015.38
2018-07-07T05:58:27.879Z,1015.35
2018-07-07T05:59:27.868Z,1015.36
2018-07-07T06:00:27.857Z,1015.37
2018-07-07T06:01:27.844Z,1015.41
2018-07-07T06:02:27.832Z,1015.4
2018-07-07T06:03:27.821Z,1015.43
2018-07-07T06:04:27.809Z,1015.41
2018-07-07T06:05:27.797Z,1015.43
2018-07-07T06:06:27.786Z,1015.41
2018-07-07T06:07:27.775Z,1015.41
2018-07-07T06:08:27.762Z,1015.43
2018-07-07T06:09:27.754Z,1015.39
2018-07-07T06:10:27.740Z,1015.39
2018-07-07T06:11:27.727Z,1015.39
2018-07-07T06:12:27.717Z,1015.39
2018-07-07T06:13:27.706Z,1015.38
2018-07-07T06:14:27.718Z,1015.4
2018-07-07T06:15:27.681Z,1015.35
2018-07-07T06:16:27.671Z,1015.39
2018-07-07T06:17:27.670Z,1015.39
2018-07-07T06:18:27.649Z,1015.42
2018-07-07T06:19:27.636Z,1015.43
2018-07-07T06:20:27.626Z,1015.45
2018-07-07T06:21:27.612Z,1015.47
2018-07-07T06:22:27.603Z,1015.46
2018-07-07T06:23:27.596Z,1015.48
2018-07-07T06:24:27.581Z,1015.54
2018-07-07T06:25:27.567Z,1015.57
2018-07-07T06:26:27.581Z,1015.53
2018-07-07T06:27:27.545Z,1015.47
2018-07-07T06:28:27.536Z,1015.45
2018-07-07T06:29:27.525Z,1015.42
2018-07-07T06:30:27.514Z,1015.46
2018-07-07T06:31:27.503Z,1015.43
2018-07-07T06:32:27.493Z,1015.45
2018-07-07T06:33:27.484Z,1015.45
2018-07-07T06:34:27.470Z,1015.41
2018-07-07T06:35:27.461Z,1015.45
2018-07-07T06:36:27.451Z,1015.44
2018-07-07T06:37:27.560Z,1015.44
2018-07-07T06:38:27.426Z,1015.48
2018-07-07T06:39:27.420Z,1015.45
2018-07-07T06:40:27.405Z,1015.45
2018-07-07T06:41:27.395Z,1015.43
2018-07-07T06:42:27.383Z,1015.44
2018-07-07T06:43:27.375Z,1015.46
2018-07-07T06:44:27.363Z,1015.45
2018-07-07T06:45:27.352Z,1015.43
2018-07-07T06:46:27.340Z,1015.45
2018-07-07T06:47:27.340Z,1015.44
2018-07-07T06:48:27.318Z,1015.42
2018-07-07T06:49:27.307Z,1015.39
2018-07-07T06:50:27.301Z,1015.47
2018-07-07T06:51:27.288Z,1015.53
2018-07-07T06:52:27.277Z,1015.64
2018-07-07T06:53:27.264Z,1015.68
2018-07-07T06:54:27.255Z,1015.68
2018-07-07T06:55:27.244Z,1015.68
2018-07-07T06:56:27.235Z,1015.69
2018-07-07T06:57:27.226Z,1015.6
2018-07-07T06:58:27.215Z,1015.55
2018-07-07T06:59:27.210Z,1015.47
2018-07-07T07:00:27.201Z,1015.5
2018-07-07T07:01:27.191Z,1015.49
2018-07-07T07:02:27.182Z,1015.49
2018-07-07T07:03:27.213Z,1015.5
2018-07-07T07:04:27.161Z,1015.48
2018-07-07T07:05:27.157Z,1015.52
2018-07-07T07:06:27.145Z,1015.56
2018-07-07T07:07:27.137Z,1015.56
2018-07-07T07:08:27.126Z,1015.58
2018-07-07T07:09:27.118Z,1015.63
2018-07-07T07:10:27.110Z,1015.61
2018-07-07T07:11:27.102Z,1015.65
2018-07-07T07:12:27.090Z,1015.72
2018-07-07T07:13:27.083Z,1015.8
2018-07-07T07:14:27.072Z,1015.85
2018-07-07T07:15:27.061Z,1015.84
2018-07-07T07:16:27.054Z,1015.87
2018-07-07T07:17:27.046Z,1015.9
2018-07-07T07:18:27.049Z,1015.94
2018-07-07T07:19:27.031Z,1015.94
2018-07-07T07:20:27.025Z,1015.95
2018-07-07T07:21:27.016Z,1015.95
2018-07-07T07:22:27.009Z,1016
2018-07-07T07:23:27.003Z,1015.99
2018-07-07T07:24:27.001Z,1015.98
2018-07-07T07:25:26.991Z,1016
2018-07-07T07:26:26.987Z,1016.01
2018-07-07T07:27:26.980Z,1015.96
2018-07-07T07:28:26.975Z,1015.99
2018-07-07T07:29:26.972Z,1016.02
2018-07-07T07:30:26.964Z,1016.04
2018-07-07T07:31:26.961Z,1016.02
2018-07-07T07:32:26.956Z,1015.98
2018-07-07T07:33:26.951Z,1016.06
2018-07-07T07:34:27.000Z,1016.02
2018-07-07T07:35:26.966Z,1016.04
2018-07-07T07:36:26.938Z,1016.05
2018-07-07T07:37:26.937Z,1016.08
2018-07-07T07:38:26.932Z,1016.06
2018-07-07T07:39:26.927Z,1016.1
2018-07-07T07:40:26.925Z,1016.11
2018-07-07T07:41:26.921Z,1016.09
2018-07-07T07:42:26.919Z,1016.11
2018-07-07T07:43:26.915Z,1016.1
2018-07-07T07:44:26.914Z,1016.1
2018-07-07T07:45:27.114Z,1016.1
2018-07-07T07:46:26.909Z,1016.12
2018-07-07T07:47:26.905Z,1016.09
2018-07-07T07:48:26.903Z,1016.09
2018-07-07T07:49:26.902Z,1016.08
2018-07-07T07:50:26.900Z,1016.1
2018-07-07T07:51:26.899Z,1016.12
2018-07-07T07:52:26.896Z,1016.09
2018-07-07T07:53:26.893Z,1016.08
2018-07-07T07:54:26.896Z,1016.1
2018-07-07T07:55:26.888Z,1016.11
2018-07-07T07:56:26.894Z,1016.11
2018-07-07T07:57:26.890Z,1016.11
2018-07-07T07:58:26.885Z,1016.13
2018-07-07T07:59:26.887Z,1016.13
2018-07-07T08:00:26.886Z,1016.15
2018-07-07T08:01:26.884Z,1016.14
2018-07-07T08:02:26.882Z,1016.13
2018-07-07T08:03:26.882Z,1016.17
2018-07-07T08:04:26.882Z,1016.18
2018-07-07T08:05:26.880Z,1016.22
2018-07-07T08:06:26.882Z,1016.2
2018-07-07T08:07:26.884Z,1016.22
2018-07-07T08:08:26.879Z,1016.16
2018-07-07T08:09:26.880Z,1016.19
2018-07-07T08:10:26.880Z,1016.17
2018-07-07T08:11:26.879Z,1016.17
2018-07-07T08:12:26.878Z,1016.15
2018-07-07T08:13:26.881Z,1016.14
2018-07-07T08:14:26.880Z,1016.15
2018-07-07T08:15:26.880Z,1016.12
2018-07-07T08:16:26.886Z,1016.13
2018-07-07T08:17:26.881Z,1016.22
2018-07-07T08:18:26.881Z,1016.17
2018-07-07T08:19:26.880Z,1016.19
2018-07-07T08:20:26.880Z,1016.21
2018-07-07T08:21:26.884Z,1016.22
2018-07-07T08:22:26.915Z,1016.23
2018-07-07T08:23:26.885Z,1016.2
2018-07-07T08:24:26.886Z,1016.19
2018-07-07T08:25:26.889Z,1016.2
2018-07-07T08:26:26.893Z,1016.19
2018-07-07T08:27:26.890Z,1016.16
2018-07-07T08:28:26.901Z,1016.11
2018-07-07T08:29:26.891Z,1016.14
2018-07-07T08:30:26.897Z,1016.15
2018-07-07T08:31:26.896Z,1016.14
2018-07-07T08:32:26.893Z,1016.01
2018-07-07T08:33:26.896Z,1016.04
2018-07-07T08:34:26.959Z,1016.09
2018-07-07T08:35:26.899Z,1016.07
2018-07-07T08:36:26.973Z,1016.31
2018-07-07T08:37:26.907Z,1016.16
2018-07-07T08:38:26.898Z,1016.06
2018-07-07T08:39:26.903Z,1015.95
2018-07-07T08:40:26.902Z,1016.02
2018-07-07T08:41:26.901Z,1015.91
2018-07-07T08:42:26.904Z,1015.87
2018-07-07T08:43:26.900Z,1015.89
2018-07-07T08:44:26.899Z,1015.89
2018-07-07T08:45:26.901Z,1015.89
2018-07-07T08:46:26.902Z,1015.87
2018-07-07T08:47:26.896Z,1015.86
2018-07-07T08:48:26.896Z,1015.8
2018-07-07T08:49:26.947Z,1015.82
2018-07-07T08:50:26.890Z,1015.86
2018-07-07T08:51:26.888Z,1015.84
2018-07-07T08:52:26.884Z,1015.86
2018-07-07T08:53:26.885Z,1015.87
2018-07-07T08:54:26.883Z,1015.83
2018-07-07T08:55:26.877Z,1015.92
2018-07-07T08:56:26.873Z,1015.95
2018-07-07T08:57:26.871Z,1016.01
2018-07-07T08:58:26.866Z,1016.26
2018-07-07T08:59:26.862Z,1016.41
2018-07-07T09:00:26.858Z,1016.4
2018-07-07T09:01:26.855Z,1016.42
2018-07-07T09:02:26.853Z,1016.36
2018-07-07T09:03:26.857Z,1016.35
2018-07-07T09:04:26.846Z,1016.3
2018-07-07T09:05:26.845Z,1016.33
2018-07-07T09:06:26.847Z,1016.38
2018-07-07T09:07:26.841Z,1016.44
2018-07-07T09:08:26.839Z,1016.41
2018-07-07T09:09:26.851Z,1016.4
2018-07-07T09:10:26.837Z,1016.42
2018-07-07T09:11:26.837Z,1016.24
2018-07-07T09:12:26.835Z,1016.06
2018-07-07T09:13:26.837Z,1016.03
2018-07-07T09:14:26.841Z,1016.23
2018-07-07T09:15:26.835Z,1015.99
2018-07-07T09:16:26.839Z,1015.98
2018-07-07T09:17:26.837Z,1016
2018-07-07T09:18:26.837Z,1015.95
2018-07-07T09:19:26.842Z,1015.96
2018-07-07T09:20:26.840Z,1015.71
2018-07-07T09:21:26.842Z,1015.75
2018-07-07T09:22:26.842Z,1015.74
2018-07-07T09:23:26.841Z,1015.77
2018-07-07T09:24:26.866Z,1016.23
2018-07-07T09:25:26.840Z,1015.94
2018-07-07T09:26:26.844Z,1015.94
2018-07-07T09:27:26.842Z,1015.79
2018-07-07T09:28:26.845Z,1015.67
2018-07-07T09:29:26.839Z,1015.7
2018-07-07T09:30:26.840Z,1015.68
2018-07-07T09:31:26.840Z,1015.73
2018-07-07T09:32:26.843Z,1015.78
2018-07-07T09:33:26.843Z,1015.78
2018-07-07T09:34:26.841Z,1015.79
2018-07-07T09:35:26.840Z,1016.25
2018-07-07T09:36:26.840Z,1016.14
2018-07-07T09:37:26.841Z,1016.17
2018-07-07T09:38:26.842Z,1015.85
2018-07-07T09:39:26.843Z,1015.94
2018-07-07T09:40:26.839Z,1015.86
2018-07-07T09:41:26.842Z,1015.63
2018-07-07T09:42:26.841Z,1015.58
2018-07-07T09:43:26.844Z,1015.62
2018-07-07T09:44:26.840Z,1015.53
2018-07-07T09:45:27.039Z,1015.56
2018-07-07T09:46:26.836Z,1015.57
2018-07-07T09:47:26.841Z,1015.59
2018-07-07T09:48:26.833Z,1015.57
2018-07-07T09:49:26.837Z,1015.57
2018-07-07T09:50:26.836Z,1015.52
2018-07-07T09:51:26.830Z,1015.53
2018-07-07T09:52:26.830Z,1015.56
2018-07-07T09:53:26.828Z,1015.53
2018-07-07T09:54:26.833Z,1015.47
2018-07-07T09:55:26.821Z,1015.45
2018-07-07T09:56:26.967Z,1015.47
2018-07-07T09:57:26.817Z,1015.44
2018-07-07T09:58:26.817Z,1015.53
2018-07-07T09:59:26.812Z,1015.54
2018-07-07T10:00:26.809Z,1015.49
2018-07-07T10:01:26.807Z,1015.51
2018-07-07T10:02:26.806Z,1015.54
2018-07-07T10:03:26.798Z,1015.53
2018-07-07T10:04:26.798Z,1015.5
2018-07-07T10:05:26.793Z,1015.55
2018-07-07T10:06:26.787Z,1015.56
2018-07-07T10:07:26.827Z,1015.45
2018-07-07T10:08:26.781Z,1015.4
2018-07-07T10:09:26.775Z,1015.39
2018-07-07T10:10:26.772Z,1015.43
2018-07-07T10:11:26.768Z,1015.43
2018-07-07T10:12:26.763Z,1015.36
2018-07-07T10:13:26.832Z,1015.35
2018-07-07T10:14:26.754Z,1015.3
2018-07-07T10:15:26.750Z,1015.35
2018-07-07T10:16:26.746Z,1015.32
2018-07-07T10:17:26.740Z,1015.4
2018-07-07T10:18:26.737Z,1015.84
2018-07-07T10:19:26.731Z,1015.33
2018-07-07T10:20:26.728Z,1015.41
2018-07-07T10:21:26.722Z,1015.39
2018-07-07T10:22:26.721Z,1015.42
2018-07-07T10:23:26.714Z,1015.88
2018-07-07T10:24:26.708Z,1015.81
2018-07-07T10:25:26.706Z,1015.82
2018-07-07T10:26:26.703Z,1015.78
2018-07-07T10:27:26.701Z,1015.9
2018-07-07T10:28:26.699Z,1015.85
2018-07-07T10:29:26.699Z,1015.84
2018-07-07T10:30:26.700Z,1015.89
2018-07-07T10:31:26.703Z,1015.88
2018-07-07T10:32:26.690Z,1015.85
2018-07-07T10:33:26.689Z,1015.88
2018-07-07T10:34:26.694Z,1015.85
2018-07-07T10:35:26.693Z,1015.9
2018-07-07T10:36:26.691Z,1015.91
2018-07-07T10:37:26.709Z,1015.87
2018-07-07T10:38:26.693Z,1015.67
2018-07-07T10:39:26.695Z,1015.93
2018-07-07T10:40:26.694Z,1015.68
2018-07-07T10:41:26.696Z,1015.82
2018-07-07T10:42:26.697Z,1015.91
2018-07-07T10:43:26.702Z,1015.92
2018-07-07T10:44:26.711Z,1015.95
2018-07-07T10:45:26.789Z,1015.83
2018-07-07T10:46:26.710Z,1015.43
2018-07-07T10:47:26.787Z,1015.75
2018-07-07T10:48:26.716Z,1015.71
2018-07-07T10:49:26.726Z,1015.68
2018-07-07T10:50:26.728Z,1015.65
2018-07-07T10:51:26.728Z,1015.61
2018-07-07T10:52:26.732Z,1015.62
2018-07-07T10:53:26.734Z,1015.65
2018-07-07T10:54:26.741Z,1015.61
2018-07-07T10:55:26.802Z,1015.59
2018-07-07T10:56:26.750Z,1015.55
2018-07-07T10:57:26.753Z,1015.54
2018-07-07T10:58:26.758Z,1015.51
2018-07-07T10:59:26.764Z,1015.55
2018-07-07T11:00:26.772Z,1015.61
2018-07-07T11:01:26.775Z,1015.53
2018-07-07T11:02:26.831Z,1015.53
2018-07-07T11:03:26.786Z,1015.55
2018-07-07T11:04:26.791Z,1015.52
2018-07-07T11:05:26.797Z,1015.53
2018-07-07T11:06:26.812Z,1015.5
2018-07-07T11:07:26.812Z,1015.43
2018-07-07T11:08:26.815Z,1015.44
2018-07-07T11:09:26.821Z,1015.49
2018-07-07T11:10:26.826Z,1015.38
2018-07-07T11:11:26.833Z,1015.48
2018-07-07T11:12:26.839Z,1015.48
2018-07-07T11:13:26.847Z,1015.46
2018-07-07T11:14:26.850Z,1015.43
2018-07-07T11:15:26.856Z,1015.47
2018-07-07T11:16:26.862Z,1015.44
2018-07-07T11:17:26.873Z,1015.45
2018-07-07T11:18:26.875Z,1015.42
2018-07-07T11:19:26.882Z,1015.47
2018-07-07T11:20:26.889Z,1015.41
2018-07-07T11:21:26.895Z,1015.41
2018-07-07T11:22:26.901Z,1015.42
2018-07-07T11:23:26.910Z,1015.4
2018-07-07T11:24:26.915Z,1015.4
2018-07-07T11:25:26.922Z,1015.39
2018-07-07T11:26:26.933Z,1015.43
2018-07-07T11:27:26.939Z,1015.48
2018-07-07T11:28:26.944Z,1015.44
2018-07-07T11:29:26.953Z,1015.48
2018-07-07T11:30:26.965Z,1015.48
2018-07-07T11:31:26.962Z,1015.43
2018-07-07T11:32:26.972Z,1015.43
2018-07-07T11:33:26.979Z,1015.44
2018-07-07T11:34:26.983Z,1015.41
2018-07-07T11:35:26.993Z,1015.4
2018-07-07T11:36:27.161Z,1015.36
2018-07-07T11:37:27.006Z,1015.39
2018-07-07T11:38:27.013Z,1015.4
2018-07-07T11:39:27.020Z,1015.39
2018-07-07T11:40:27.035Z,1015.4
2018-07-07T11:41:27.034Z,1015.32
2018-07-07T11:42:27.046Z,1015.34
2018-07-07T11:43:27.047Z,1015.37
2018-07-07T11:44:27.055Z,1015.32
2018-07-07T11:45:27.265Z,1015.3
2018-07-07T11:46:27.069Z,1015.29
2018-07-07T11:47:27.077Z,1015.32
2018-07-07T11:48:27.085Z,1015.33
2018-07-07T11:49:27.091Z,1015.29
2018-07-07T11:50:27.146Z,1015.34
2018-07-07T11:51:27.108Z,1015.25
2018-07-07T11:52:27.116Z,1015.38
2018-07-07T11:53:27.124Z,1015.37
2018-07-07T11:54:27.134Z,1015.35
2018-07-07T11:55:27.138Z,1015.34
2018-07-07T11:56:27.142Z,1015.36
2018-07-07T11:57:27.151Z,1015.39
2018-07-07T11:58:27.157Z,1015.42
2018-07-07T11:59:27.217Z,1015.36
2018-07-07T12:00:27.171Z,1015.42
2018-07-07T12:01:27.178Z,1015.4
2018-07-07T12:02:27.185Z,1015.37
2018-07-07T12:03:27.192Z,1015.38
2018-07-07T12:04:27.233Z,1015.37
2018-07-07T12:05:27.206Z,1015.35
2018-07-07T12:06:27.215Z,1015.34
2018-07-07T12:07:27.222Z,1015.37
2018-07-07T12:08:27.290Z,1015.33